Triumph — WDC9555 — position and weather

sailwx.info

Track history (hours):
 
Tides and Currents Weather Stations Pressure Air Temp Water Temp Dewpoint Dewpoint Depression Visibility Wind Speed Wind Dir Waves Ship Positions

Triumph

Owner: WESTERN TOWBOAT CO, SEATTLE, WA. More information available from US FCC via Universal Licensing System and Coast Guard Vessel Documentation Center.

Last reported at 2015-Aug-30 01:27 UTC. Time now 2015-Sep-01 01:51 UTC.
Position N 47°39' W 122°22'.

Length 24 m; draft 3 m.

Type: Tow > 200 m length. MMSI: 367103880.

Date/timePositionNaut miles runAvg speedWind from/ knotsBaromVisibWave heightAir tempDewpointWater temp
2015-Aug-30 01:27N 47°39' W 122°22'3 3.2
2015-Aug-30 00:33N 47°39' W 122°26'3 3.1
2015-Aug-29 23:33N 47°36' W 122°23'7 5.8
2015-Aug-29 22:20N 47°43' W 122°27'5 6.3
2015-Aug-29 21:33N 47°48' W 122°27'6 6.4
2015-Aug-29 20:32N 47°54' W 122°30'7 7.0
2015-Aug-29 19:30N 47°60' W 122°37'14 4.6
2015-Aug-29 16:32N 48°11' W 122°48'14 6.5
2015-Aug-29 14:23N 48°25' W 122°45'8 9.3
2015-Aug-29 13:33N 48°33' W 122°45'8 7.8
2015-Aug-29 12:33N 48°40' W 122°44'6 6.3
2015-Aug-29 11:33N 48°46' W 122°49'7 6.6
2015-Aug-29 10:33N 48°50' W 122°57'6 5.6
2015-Aug-29 09:33N 48°53' W 123°04'7 6.6
2015-Aug-29 08:33N 48°57' W 123°12'7 6.8
2015-Aug-29 07:33N 49°02' W 123°19'6 5.6
2015-Aug-29 06:33N 49°07' W 123°16'6 5.9
2015-Aug-29 05:33N 49°07' W 123°07'4 4.2
2015-Aug-29 04:33N 49°09' W 123°02'0 0.0
2015-Aug-29 03:33N 49°09' W 123°02'0 0.0
2015-Aug-29 02:33N 49°09' W 123°02'0 0.0
2015-Aug-29 01:33N 49°09' W 123°02'0 0.0
2015-Aug-29 00:33N 49°09' W 123°02'0 0.0
2015-Aug-28 23:33N 49°09' W 123°02'0 0.0
2015-Aug-28 22:24N 49°09' W 123°02'0 0.0
2015-Aug-28 21:33N 49°09' W 123°02'0 0.0
2015-Aug-28 20:33N 49°09' W 123°02'0 0.0
2015-Aug-28 19:33N 49°09' W 123°02'0 0.0
2015-Aug-28 18:33N 49°09' W 123°02'0 0.0
2015-Aug-28 17:33N 49°09' W 123°02'0 0.0
2015-Aug-28 16:33N 49°09' W 123°02'0 0.0
2015-Aug-28 15:33N 49°09' W 123°02'0 0.0
2015-Aug-28 14:33N 49°09' W 123°02'0 0.0
2015-Aug-28 13:33N 49°09' W 123°02'0 0.0
2015-Aug-28 12:33N 49°09' W 123°02'0 0.0
2015-Aug-28 11:33N 49°09' W 123°02'0 0.0
2015-Aug-28 10:33N 49°09' W 123°02'1 1.0
2015-Aug-28 09:33N 49°08' W 123°03'6 6.0
2015-Aug-28 08:33N 49°07' W 123°12'6 6.0
2015-Aug-28 07:33N 49°05' W 123°20'10 9.7
2015-Aug-28 06:33N 48°58' W 123°10'10 9.9
2015-Aug-28 05:33N 48°51' W 122°58'10 9.5
2015-Aug-28 04:29N 48°45' W 122°46'7 7.8
2015-Aug-28 03:33N 48°38' W 122°44'7 7.4
2015-Aug-28 02:33N 48°31' W 122°44'32 7.8
2015-Aug-27 22:25N 47°59' W 122°35'7 8.6
2015-Aug-27 21:33N 47°53' W 122°28'9 8.9
2015-Aug-27 20:33N 47°44' W 122°26'7 7.4
2015-Aug-27 19:33N 47°37' W 122°24'4 3.6
2015-Aug-27 18:31N 47°34' W 122°21'  
2015-Aug-23 22:19N 47°34' W 122°21'2 2.1
2015-Aug-23 21:33N 47°35' W 122°22'6 5.6
2015-Aug-23 20:33N 47°39' W 122°28'7 7.0
2015-Aug-23 19:33N 47°46' W 122°27'7 7.2
2015-Aug-23 18:33N 47°53' W 122°29'8 7.7
2015-Aug-23 17:32N 47°59' W 122°37'11 8.2
2015-Aug-23 16:15N 48°09' W 122°44'8 7.6
2015-Aug-23 15:12N 48°16' W 122°48'5 7.0
2015-Aug-23 14:33N 48°21' W 122°46'8 7.8
2015-Aug-23 13:33N 48°28' W 122°44'7 7.5
2015-Aug-23 12:33N 48°36' W 122°46'7 7.4
2015-Aug-23 11:33N 48°43' W 122°46'7 7.3
2015-Aug-23 10:33N 48°48' W 122°54'8 8.0
2015-Aug-23 09:33N 48°52' W 123°04'8 7.6
2015-Aug-23 08:33N 48°57' W 123°13'7 7.1
2015-Aug-23 07:33N 49°03' W 123°20'6 5.6
2015-Aug-23 06:33N 49°08' W 123°15'5 5.4
2015-Aug-23 05:33N 49°07' W 123°07'4 3.9
2015-Aug-23 04:34N 49°09' W 123°02'0 0.0
2015-Aug-23 03:33N 49°09' W 123°02'0 0.0
2015-Aug-23 02:33N 49°09' W 123°02'0 0.1
2015-Aug-23 01:33N 49°09' W 123°02'0 0.1
2015-Aug-23 00:33N 49°09' W 123°02'0 0.0
2015-Aug-22 23:33N 49°09' W 123°02'0 0.0
2015-Aug-22 22:33N 49°09' W 123°02'0 0.0
2015-Aug-22 21:33N 49°09' W 123°02'0 0.0
2015-Aug-22 20:33N 49°09' W 123°02'0 0.0
2015-Aug-22 19:33N 49°09' W 123°02'0 0.0
2015-Aug-22 18:33N 49°09' W 123°02'0 0.0
2015-Aug-22 17:33N 49°09' W 123°02'0 0.0
2015-Aug-22 16:33N 49°09' W 123°02'0 0.0
2015-Aug-22 15:33N 49°09' W 123°02'0 0.0
2015-Aug-22 14:33N 49°09' W 123°02'0 0.0
2015-Aug-22 13:33N 49°09' W 123°02'0 0.0
2015-Aug-22 12:33N 49°09' W 123°02'0 0.0
2015-Aug-22 11:33N 49°09' W 123°02'1 0.9
2015-Aug-22 10:33N 49°09' W 123°01'1 0.9
2015-Aug-22 09:34N 49°09' W 123°02'5 5.1
2015-Aug-22 08:33N 49°07' W 123°09'7 6.6
2015-Aug-22 07:33N 49°06' W 123°19'7 7.0
2015-Aug-22 06:33N 48°60' W 123°13'8 8.4
2015-Aug-22 05:33N 48°54' W 123°03'9 8.8
2015-Aug-22 04:31N 48°48' W 122°53'8 8.8
2015-Aug-22 03:33N 48°43' W 122°44'9 8.8
2015-Aug-22 02:33N 48°34' W 122°45'35 8.6
2015-Aug-21 22:28N 47°59' W 122°36'9 9.7
2015-Aug-21 21:33N 47°52' W 122°28'10 9.8
2015-Aug-21 20:33N 47°42' W 122°27'9 8.5
2015-Aug-21 19:33N 47°34' W 122°21'1 0.6
2015-Aug-21 18:32N 47°34' W 122°21'0 0.0
2015-Aug-21 17:33N 47°34' W 122°21'0 0.0
2015-Aug-21 16:31N 47°34' W 122°21'  
Track history (hours):
 
Tides and Currents Weather Stations Pressure Air Temp Water Temp Dewpoint Dewpoint Depression Visibility Wind Speed Wind Dir Waves Ship Positions

Triumph

Owner: WESTERN TOWBOAT CO, SEATTLE, WA. More information available from US FCC via Universal Licensing System and Coast Guard Vessel Documentation Center.

Last reported at 2015-Aug-30 01:27 UTC. Time now 2015-Sep-01 01:51 UTC.
Position N 47°39' W 122°22'.

Length 24 m; draft 3 m.

Type: Tow > 200 m length. MMSI: 367103880.

Date/timePositionNaut miles runAvg speedWind from/ knotsBaromVisibWave heightAir tempDewpointWater temp
2015-Aug-30 01:27N 47°39' W 122°22'3 3.2
2015-Aug-30 00:33N 47°39' W 122°26'3 3.1
2015-Aug-29 23:33N 47°36' W 122°23'7 5.8
2015-Aug-29 22:20N 47°43' W 122°27'5 6.3
2015-Aug-29 21:33N 47°48' W 122°27'6 6.4
2015-Aug-29 20:32N 47°54' W 122°30'7 7.0
2015-Aug-29 19:30N 47°60' W 122°37'14 4.6
2015-Aug-29 16:32N 48°11' W 122°48'14 6.5
2015-Aug-29 14:23N 48°25' W 122°45'8 9.3
2015-Aug-29 13:33N 48°33' W 122°45'8 7.8
2015-Aug-29 12:33N 48°40' W 122°44'6 6.3
2015-Aug-29 11:33N 48°46' W 122°49'7 6.6
2015-Aug-29 10:33N 48°50' W 122°57'6 5.6
2015-Aug-29 09:33N 48°53' W 123°04'7 6.6
2015-Aug-29 08:33N 48°57' W 123°12'7 6.8
2015-Aug-29 07:33N 49°02' W 123°19'6 5.6
2015-Aug-29 06:33N 49°07' W 123°16'6 5.9
2015-Aug-29 05:33N 49°07' W 123°07'4 4.2
2015-Aug-29 04:33N 49°09' W 123°02'0 0.0
2015-Aug-29 03:33N 49°09' W 123°02'0 0.0
2015-Aug-29 02:33N 49°09' W 123°02'0 0.0
2015-Aug-29 01:33N 49°09' W 123°02'0 0.0
2015-Aug-29 00:33N 49°09' W 123°02'0 0.0
2015-Aug-28 23:33N 49°09' W 123°02'0 0.0
2015-Aug-28 22:24N 49°09' W 123°02'0 0.0
2015-Aug-28 21:33N 49°09' W 123°02'0 0.0
2015-Aug-28 20:33N 49°09' W 123°02'0 0.0
2015-Aug-28 19:33N 49°09' W 123°02'0 0.0
2015-Aug-28 18:33N 49°09' W 123°02'0 0.0
2015-Aug-28 17:33N 49°09' W 123°02'0 0.0
2015-Aug-28 16:33N 49°09' W 123°02'0 0.0
2015-Aug-28 15:33N 49°09' W 123°02'0 0.0
2015-Aug-28 14:33N 49°09' W 123°02'0 0.0
2015-Aug-28 13:33N 49°09' W 123°02'0 0.0
2015-Aug-28 12:33N 49°09' W 123°02'0 0.0
2015-Aug-28 11:33N 49°09' W 123°02'0 0.0
2015-Aug-28 10:33N 49°09' W 123°02'1 1.0
2015-Aug-28 09:33N 49°08' W 123°03'6 6.0
2015-Aug-28 08:33N 49°07' W 123°12'6 6.0
2015-Aug-28 07:33N 49°05' W 123°20'10 9.7
2015-Aug-28 06:33N 48°58' W 123°10'10 9.9
2015-Aug-28 05:33N 48°51' W 122°58'10 9.5
2015-Aug-28 04:29N 48°45' W 122°46'7 7.8
2015-Aug-28 03:33N 48°38' W 122°44'7 7.4
2015-Aug-28 02:33N 48°31' W 122°44'32 7.8
2015-Aug-27 22:25N 47°59' W 122°35'7 8.6
2015-Aug-27 21:33N 47°53' W 122°28'9 8.9
2015-Aug-27 20:33N 47°44' W 122°26'7 7.4
2015-Aug-27 19:33N 47°37' W 122°24'4 3.6
2015-Aug-27 18:31N 47°34' W 122°21'  
2015-Aug-23 22:19N 47°34' W 122°21'2 2.1
2015-Aug-23 21:33N 47°35' W 122°22'6 5.6
2015-Aug-23 20:33N 47°39' W 122°28'7 7.0
2015-Aug-23 19:33N 47°46' W 122°27'7 7.2
2015-Aug-23 18:33N 47°53' W 122°29'8 7.7
2015-Aug-23 17:32N 47°59' W 122°37'11 8.2
2015-Aug-23 16:15N 48°09' W 122°44'8 7.6
2015-Aug-23 15:12N 48°16' W 122°48'5 7.0
2015-Aug-23 14:33N 48°21' W 122°46'8 7.8
2015-Aug-23 13:33N 48°28' W 122°44'7 7.5
2015-Aug-23 12:33N 48°36' W 122°46'7 7.4
2015-Aug-23 11:33N 48°43' W 122°46'7 7.3
2015-Aug-23 10:33N 48°48' W 122°54'8 8.0
2015-Aug-23 09:33N 48°52' W 123°04'8 7.6
2015-Aug-23 08:33N 48°57' W 123°13'7 7.1
2015-Aug-23 07:33N 49°03' W 123°20'6 5.6
2015-Aug-23 06:33N 49°08' W 123°15'5 5.4
2015-Aug-23 05:33N 49°07' W 123°07'4 3.9
2015-Aug-23 04:34N 49°09' W 123°02'0 0.0
2015-Aug-23 03:33N 49°09' W 123°02'0 0.0
2015-Aug-23 02:33N 49°09' W 123°02'0 0.1
2015-Aug-23 01:33N 49°09' W 123°02'0 0.1
2015-Aug-23 00:33N 49°09' W 123°02'0 0.0
2015-Aug-22 23:33N 49°09' W 123°02'0 0.0
2015-Aug-22 22:33N 49°09' W 123°02'0 0.0
2015-Aug-22 21:33N 49°09' W 123°02'0 0.0
2015-Aug-22 20:33N 49°09' W 123°02'0 0.0
2015-Aug-22 19:33N 49°09' W 123°02'0 0.0
2015-Aug-22 18:33N 49°09' W 123°02'0 0.0
2015-Aug-22 17:33N 49°09' W 123°02'0 0.0
2015-Aug-22 16:33N 49°09' W 123°02'0 0.0
2015-Aug-22 15:33N 49°09' W 123°02'0 0.0
2015-Aug-22 14:33N 49°09' W 123°02'0 0.0
2015-Aug-22 13:33N 49°09' W 123°02'0 0.0
2015-Aug-22 12:33N 49°09' W 123°02'0 0.0
2015-Aug-22 11:33N 49°09' W 123°02'1 0.9
2015-Aug-22 10:33N 49°09' W 123°01'1 0.9
2015-Aug-22 09:34N 49°09' W 123°02'5 5.1
2015-Aug-22 08:33N 49°07' W 123°09'7 6.6
2015-Aug-22 07:33N 49°06' W 123°19'7 7.0
2015-Aug-22 06:33N 48°60' W 123°13'8 8.4
2015-Aug-22 05:33N 48°54' W 123°03'9 8.8
2015-Aug-22 04:31N 48°48' W 122°53'8 8.8
2015-Aug-22 03:33N 48°43' W 122°44'9 8.8
2015-Aug-22 02:33N 48°34' W 122°45'35 8.6
2015-Aug-21 22:28N 47°59' W 122°36'9 9.7
2015-Aug-21 21:33N 47°52' W 122°28'10 9.8
2015-Aug-21 20:33N 47°42' W 122°27'9 8.5
2015-Aug-21 19:33N 47°34' W 122°21'1 0.6
2015-Aug-21 18:32N 47°34' W 122°21'0 0.0
2015-Aug-21 17:33N 47°34' W 122°21'0 0.0
2015-Aug-21 16:31N 47°34' W 122°21'  

Dump ship's entire track history